Time;durP1;ratioP1;P1;durP2;ratioP2;P2;SDS_P1;SDS_P2;PMS_P1;PMS_P2;Temp;Humidity;BMP_temperature;BMP_pressure;BME280_temperature;BME280_humidity;BME280_pressure;Samples;Min_cycle;Max_cycle;Signal;HPM_P1;HPM_P2
2021/08/29 00:00:13;;;;;;;8.48;3.85;;;16.00;99.90;;;;;;4995874;28;20173;-81
2021/08/29 00:02:39;;;;;;;4.03;3.45;;;15.90;99.90;;;;;;4995448;28;20169;-80
2021/08/29 00:05:06;;;;;;;21.50;2.65;;;16.00;99.90;;;;;;4995720;28;20292;-81
2021/08/29 00:07:32;;;;;;;12.27;3.58;;;16.00;99.90;;;;;;4995655;28;20276;-81
2021/08/29 00:09:58;;;;;;;8.85;3.58;;;16.00;99.90;;;;;;4995879;28;20173;-81
2021/08/29 00:12:23;;;;;;;9.85;3.53;;;15.90;99.90;;;;;;4994732;28;20200;-81
2021/08/29 00:14:49;;;;;;;7.07;4.00;;;15.80;99.90;;;;;;4995623;28;20170;-81
2021/08/29 00:17:15;;;;;;;4.50;2.83;;;15.80;99.90;;;;;;4995693;28;20268;-82
2021/08/29 00:19:40;;;;;;;6.68;3.35;;;15.90;99.90;;;;;;4994571;28;20509;-81
2021/08/29 00:22:06;;;;;;;8.13;3.35;;;16.10;99.90;;;;;;4995534;28;20174;-81
2021/08/29 00:24:32;;;;;;;7.03;3.10;;;16.20;99.90;;;;;;4995314;28;20181;-84
2021/08/29 00:26:57;;;;;;;13.13;3.22;;;16.00;99.90;;;;;;4993799;28;20196;-82
2021/08/29 00:29:23;;;;;;;4.53;3.42;;;16.10;99.90;;;;;;4995207;28;20166;-82
2021/08/29 00:31:49;;;;;;;6.28;3.53;;;16.20;99.90;;;;;;4995675;28;20200;-81
2021/08/29 00:34:14;;;;;;;5.30;3.13;;;16.10;99.90;;;;;;4993745;28;20288;-81
2021/08/29 00:36:40;;;;;;;6.22;2.83;;;16.10;99.90;;;;;;4993967;28;20193;-82
2021/08/29 00:39:05;;;;;;;8.85;4.47;;;15.90;99.90;;;;;;4993927;28;20506;-82
2021/08/29 00:41:32;;;;;;;6.68;3.22;;;15.80;99.90;;;;;;4995218;28;20181;-81
2021/08/29 00:43:58;;;;;;;7.40;3.30;;;15.70;99.90;;;;;;4993859;28;20169;-81
2021/08/29 00:46:24;;;;;;;6.60;3.25;;;15.70;99.90;;;;;;4994961;28;20181;-81
2021/08/29 00:48:51;;;;;;;5.93;3.17;;;15.60;99.90;;;;;;4993783;28;20537;-81
2021/08/29 00:51:17;;;;;;;9.25;2.92;;;15.60;99.90;;;;;;4993693;28;20169;-81
2021/08/29 00:54:03;;;;;;;9.40;3.58;;;15.60;99.90;;;;;;4994976;28;20220;-81
2021/08/29 00:56:29;;;;;;;13.00;3.75;;;15.60;99.90;;;;;;4994549;28;20184;-81
2021/08/29 00:58:56;;;;;;;11.30;3.75;;;15.60;99.90;;;;;;4994366;28;20181;-81
2021/08/29 01:01:42;;;;;;;11.15;3.20;;;15.60;99.90;;;;;;4993663;28;20172;-81
2021/08/29 01:04:19;;;;;;;7.93;3.40;;;15.60;99.90;;;;;;4994890;28;20174;-81
2021/08/29 01:07:14;;;;;;;5.85;3.90;;;15.50;99.90;;;;;;4994421;28;20597;-81
2021/08/29 01:09:43;;;;;;;7.65;3.50;;;15.60;99.90;;;;;;4993411;28;20264;-81
2021/08/29 01:12:10;;;;;;;13.02;3.85;;;15.50;99.90;;;;;;4994509;28;20154;-81
2021/08/29 01:14:36;;;;;;;7.85;3.20;;;15.50;99.90;;;;;;4993359;28;20260;-82
2021/08/29 01:17:04;;;;;;;7.53;3.30;;;15.60;99.90;;;;;;4993221;28;20646;-80
2021/08/29 01:20:10;;;;;;;9.32;3.78;;;15.60;99.90;;;;;;4993154;28;20209;-81
2021/08/29 01:22:39;;;;;;;12.07;3.55;;;15.70;99.90;;;;;;4970505;28;20193;-81
2021/08/29 01:25:08;;;;;;;6.95;3.35;;;15.90;99.90;;;;;;4992888;28;20172;-81
2021/08/29 01:27:45;;;;;;;7.95;3.10;;;15.90;99.90;;;;;;4993017;28;20185;-81
2021/08/29 01:30:12;;;;;;;6.90;3.55;;;16.00;99.90;;;;;;4994298;28;20192;-82
2021/08/29 01:32:38;;;;;;;7.20;2.88;;;16.00;99.90;;;;;;4994373;28;20200;-81
2021/08/29 01:35:05;;;;;;;8.90;3.42;;;16.20;99.90;;;;;;4992781;28;20177;-82
2021/08/29 01:37:32;;;;;;;6.63;3.92;;;16.10;99.90;;;;;;4994066;28;20201;-81
2021/08/29 01:39:58;;;;;;;7.22;3.63;;;16.00;99.90;;;;;;4993931;28;20164;-81
2021/08/29 01:42:24;;;;;;;9.07;3.08;;;16.00;99.90;;;;;;4993574;28;20168;-81
2021/08/29 01:44:49;;;;;;;5.72;3.60;;;16.00;99.90;;;;;;4992643;28;20556;-81
2021/08/29 01:47:16;;;;;;;10.73;3.63;;;16.10;99.90;;;;;;4993954;28;20197;-81
2021/08/29 01:49:44;;;;;;;5.22;3.50;;;16.20;99.90;;;;;;4992698;28;20165;-82
2021/08/29 01:52:09;;;;;;;13.85;4.70;;;16.30;99.90;;;;;;4992108;28;20203;-81
2021/08/29 01:54:37;;;;;;;7.53;4.43;;;16.40;99.90;;;;;;4992161;28;20173;-81
2021/08/29 01:57:11;;;;;;;8.80;4.40;;;16.20;99.90;;;;;;4993282;28;20649;-83
2021/08/29 01:59:37;;;;;;;8.82;4.18;;;16.20;99.90;;;;;;4993435;28;20164;-81
2021/08/29 02:02:04;;;;;;;10.48;4.45;;;16.20;99.90;;;;;;4993457;28;20170;-81
2021/08/29 02:04:30;;;;;;;10.45;4.28;;;16.30;99.90;;;;;;4993746;28;20586;-81
2021/08/29 02:07:11;;;;;;;10.00;4.28;;;16.20;99.90;;;;;;4992068;28;20251;-81
2021/08/29 02:09:43;;;;;;;6.35;3.38;;;16.20;99.90;;;;;;4991729;28;20215;-81
2021/08/29 02:12:11;;;;;;;5.72;4.15;;;16.30;99.90;;;;;;4993288;28;20173;-81
2021/08/29 02:14:58;;;;;;;12.80;5.40;;;16.50;99.90;;;;;;4992293;28;20176;-82
2021/08/29 02:17:26;;;;;;;16.58;4.60;;;16.50;99.90;;;;;;4992335;28;20189;-81
2021/08/29 02:19:53;;;;;;;11.10;4.57;;;16.40;99.90;;;;;;4993500;28;20169;-81
2021/08/29 02:22:19;;;;;;;7.05;4.38;;;16.30;99.90;;;;;;4993140;28;20187;-81
2021/08/29 02:24:45;;;;;;;9.32;4.15;;;16.30;99.90;;;;;;4993390;28;20630;-81
2021/08/29 02:27:11;;;;;;;7.70;4.10;;;16.30;99.90;;;;;;4991641;28;20685;-81
2021/08/29 02:29:38;;;;;;;10.38;4.65;;;16.40;99.90;;;;;;4993147;28;20169;-81
2021/08/29 02:32:05;;;;;;;6.72;4.32;;;16.40;99.90;;;;;;4991889;28;20165;-81
2021/08/29 02:34:31;;;;;;;8.45;4.90;;;16.30;99.90;;;;;;4991885;28;20213;-82
2021/08/29 02:36:57;;;;;;;6.72;4.00;;;16.30;99.90;;;;;;4992904;28;20185;-83
2021/08/29 02:39:26;;;;;;;7.35;3.85;;;16.40;99.90;;;;;;4992791;28;20522;-82
2021/08/29 02:41:53;;;;;;;5.57;3.72;;;16.10;99.90;;;;;;4992026;28;20181;-81
2021/08/29 02:44:21;;;;;;;6.70;3.78;;;16.20;99.90;;;;;;4991852;28;20184;-81
2021/08/29 02:46:50;;;;;;;10.00;3.85;;;16.20;99.90;;;;;;4991595;28;20193;-81
2021/08/29 02:49:19;;;;;;;14.77;4.38;;;16.20;99.90;;;;;;4993196;28;20228;-81
2021/08/29 02:51:45;;;;;;;7.53;3.92;;;16.10;99.90;;;;;;4991887;28;20544;-81
2021/08/29 02:54:12;;;;;;;11.65;3.83;;;16.20;99.90;;;;;;4992867;28;20676;-81
2021/08/29 02:56:39;;;;;;;7.28;3.67;;;16.10;99.90;;;;;;4993046;28;20192;-81
2021/08/29 02:59:05;;;;;;;8.80;4.28;;;16.20;99.90;;;;;;4992665;28;20173;-81
2021/08/29 03:01:30;;;;;;;10.48;4.20;;;16.30;99.90;;;;;;4991570;28;20212;-81
2021/08/29 03:03:56;;;;;;;10.15;4.60;;;16.20;99.90;;;;;;4992641;28;20238;-80
2021/08/29 03:06:22;;;;;;;4.28;3.88;;;16.10;99.90;;;;;;4991306;28;20196;-81
2021/08/29 03:08:48;;;;;;;6.18;3.15;;;16.00;99.90;;;;;;4991226;28;20183;-81
2021/08/29 03:11:13;;;;;;;12.15;3.50;;;16.10;99.90;;;;;;4991491;28;20523;-81
2021/08/29 03:13:40;;;;;;;5.05;3.47;;;16.20;99.90;;;;;;4991286;28;20208;-81
2021/08/29 03:16:06;;;;;;;5.18;3.90;;;16.10;99.90;;;;;;4991431;28;20189;-81
2021/08/29 03:18:33;;;;;;;6.38;3.33;;;16.10;99.90;;;;;;4992640;28;20717;-81
2021/08/29 03:20:59;;;;;;;9.65;3.80;;;16.30;99.90;;;;;;4991817;28;20652;-81
2021/08/29 03:23:28;;;;;;;8.60;3.35;;;16.40;99.90;;;;;;4995387;28;20200;-82
2021/08/29 03:25:54;;;;;;;3.63;3.33;;;16.50;99.90;;;;;;4996663;28;20228;-81
2021/08/29 03:28:20;;;;;;;7.38;4.03;;;16.60;99.90;;;;;;4996457;28;20189;-81
2021/08/29 03:30:45;;;;;;;7.68;3.95;;;16.70;99.90;;;;;;4996366;28;20646;-82
2021/08/29 03:33:11;;;;;;;5.82;3.58;;;16.60;99.90;;;;;;4996445;28;20268;-81
2021/08/29 03:35:37;;;;;;;9.80;3.75;;;16.70;99.90;;;;;;4996401;28;20161;-82
2021/08/29 03:38:07;;;;;;;16.65;4.13;;;16.60;99.90;;;;;;4995629;28;20202;-81
2021/08/29 03:40:33;;;;;;;4.28;3.17;;;16.60;99.90;;;;;;4994689;28;20197;-81
2021/08/29 03:42:58;;;;;;;12.25;3.90;;;16.70;99.90;;;;;;4994762;28;20268;-83
2021/08/29 03:45:24;;;;;;;6.57;3.67;;;16.50;99.90;;;;;;4995041;28;20280;-82
2021/08/29 03:47:50;;;;;;;6.32;3.92;;;16.50;99.90;;;;;;4994843;28;20258;-82
2021/08/29 03:50:16;;;;;;;7.90;4.00;;;16.40;99.90;;;;;;4995718;28;20181;-81
2021/08/29 03:52:42;;;;;;;6.45;3.38;;;16.30;99.90;;;;;;4994613;28;20201;-81
2021/08/29 03:55:09;;;;;;;9.20;4.00;;;16.30;99.90;;;;;;4996043;28;20541;-81
2021/08/29 03:57:37;;;;;;;9.95;3.92;;;16.20;99.90;;;;;;4996011;28;20272;-81
2021/08/29 04:00:03;;;;;;;3.50;3.17;;;16.20;99.90;;;;;;4994787;28;20236;-81
2021/08/29 04:02:29;;;;;;;9.50;4.05;;;16.20;99.90;;;;;;4995774;28;20165;-81
2021/08/29 04:04:55;;;;;;;15.43;4.57;;;16.40;99.90;;;;;;4995712;28;20177;-81
2021/08/29 04:07:21;;;;;;;4.88;3.33;;;16.50;99.90;;;;;;4995848;28;20251;-81
2021/08/29 04:09:48;;;;;;;12.70;3.85;;;16.50;99.90;;;;;;4995852;28;20173;-81
2021/08/29 04:12:15;;;;;;;11.07;4.13;;;16.60;99.90;;;;;;4994203;28;20173;-81
2021/08/29 04:14:43;;;;;;;8.90;4.03;;;16.60;99.90;;;;;;4995542;28;20522;-81
2021/08/29 04:17:09;;;;;;;8.93;3.78;;;16.80;99.90;;;;;;4994261;28;20601;-81
2021/08/29 04:19:40;;;;;;;8.38;4.13;;;16.70;99.90;;;;;;4994296;28;20618;-81
2021/08/29 04:22:06;;;;;;;8.18;3.67;;;16.50;99.90;;;;;;4995469;28;20188;-82
2021/08/29 04:24:32;;;;;;;7.35;3.33;;;16.50;99.90;;;;;;4993910;28;20585;-81
2021/08/29 04:26:58;;;;;;;8.38;3.25;;;16.50;99.90;;;;;;4995462;28;20185;-82
2021/08/29 04:29:24;;;;;;;10.18;3.92;;;16.50;99.90;;;;;;4995313;28;20200;-82
2021/08/29 04:31:51;;;;;;;11.32;4.40;;;16.60;99.90;;;;;;4995600;28;20165;-82
2021/08/29 04:34:17;;;;;;;6.40;3.67;;;16.50;99.90;;;;;;4993249;28;20312;-82
2021/08/29 04:36:43;;;;;;;15.35;4.72;;;16.60;99.90;;;;;;4995096;28;20272;-81
2021/08/29 04:39:09;;;;;;;7.35;3.83;;;16.70;99.90;;;;;;4994849;28;20169;-80
2021/08/29 04:41:36;;;;;;;10.70;4.75;;;16.60;99.90;;;;;;4995058;28;20170;-81
2021/08/29 04:44:02;;;;;;;10.65;4.85;;;16.50;99.90;;;;;;4993848;28;20205;-82
2021/08/29 04:46:28;;;;;;;16.13;5.00;;;16.50;99.90;;;;;;4993866;28;20169;-81
2021/08/29 04:48:54;;;;;;;8.88;4.93;;;16.60;99.90;;;;;;4993528;28;20219;-81
2021/08/29 04:51:20;;;;;;;6.60;4.28;;;16.70;99.90;;;;;;4995543;28;20150;-81
2021/08/29 04:53:48;;;;;;;16.85;4.78;;;16.70;99.90;;;;;;4994945;28;20346;-81
2021/08/29 04:56:27;;;;;;;9.75;3.95;;;16.90;99.90;;;;;;4993950;28;20185;-80
2021/08/29 04:58:53;;;;;;;8.85;4.55;;;17.00;99.90;;;;;;4995042;28;20529;-81
2021/08/29 05:01:30;;;;;;;13.73;4.90;;;16.90;99.90;;;;;;4994926;28;20176;-81
2021/08/29 05:03:56;;;;;;;5.07;4.35;;;16.70;99.90;;;;;;4993088;28;20184;-81
2021/08/29 05:06:22;;;;;;;15.13;4.78;;;16.50;99.90;;;;;;4993311;28;20170;-83
2021/08/29 05:08:48;;;;;;;5.05;3.53;;;16.30;99.90;;;;;;4994323;28;20169;-81
2021/08/29 05:11:13;;;;;;;6.50;3.95;;;16.30;99.90;;;;;;4993348;28;20223;-82
2021/08/29 05:13:39;;;;;;;8.30;3.97;;;16.40;99.90;;;;;;4994398;28;20209;-81
2021/08/29 05:16:04;;;;;;;12.48;4.53;;;16.50;99.90;;;;;;4993189;28;20161;-82
2021/08/29 05:18:31;;;;;;;6.93;4.07;;;16.70;99.90;;;;;;4994251;28;20193;-81
2021/08/29 05:20:56;;;;;;;3.65;3.33;;;16.70;99.90;;;;;;4994477;28;20252;-81
2021/08/29 05:23:22;;;;;;;9.35;3.95;;;16.90;99.90;;;;;;4994417;28;20252;-81
2021/08/29 05:25:48;;;;;;;18.10;4.25;;;16.80;99.90;;;;;;4994347;28;20162;-81
2021/08/29 05:28:13;;;;;;;5.45;3.45;;;16.80;99.90;;;;;;4992522;28;20573;-80
2021/08/29 05:30:39;;;;;;;3.90;3.10;;;16.90;99.90;;;;;;4994161;28;20216;-81
2021/08/29 05:33:04;;;;;;;6.20;4.30;;;17.00;99.90;;;;;;4993897;28;20193;-80
2021/08/29 05:35:30;;;;;;;16.08;3.95;;;16.90;99.90;;;;;;4993030;28;20177;-81
2021/08/29 05:37:56;;;;;;;18.73;4.43;;;17.10;99.90;;;;;;4994102;28;20582;-81
2021/08/29 05:40:21;;;;;;;13.07;4.32;;;17.20;99.90;;;;;;4994078;28;20169;-82
2021/08/29 05:42:47;;;;;;;8.02;4.78;;;17.30;99.90;;;;;;4993757;28;20272;-82
2021/08/29 05:45:12;;;;;;;18.85;4.43;;;17.20;99.90;;;;;;4993814;28;20165;-82
2021/08/29 05:47:38;;;;;;;15.18;4.65;;;17.30;99.90;;;;;;4993590;28;20177;-82
2021/08/29 05:50:04;;;;;;;20.38;5.38;;;17.20;99.90;;;;;;4992230;28;20180;-82
2021/08/29 05:52:30;;;;;;;15.45;4.18;;;17.20;99.90;;;;;;4993684;28;20634;-81
2021/08/29 05:54:55;;;;;;;14.38;5.45;;;17.20;99.90;;;;;;4993882;28;20220;-81
2021/08/29 05:57:21;;;;;;;8.57;4.43;;;17.10;99.90;;;;;;4993511;28;20621;-81
2021/08/29 05:59:46;;;;;;;16.60;4.63;;;17.20;99.90;;;;;;4992562;28;20630;-81
2021/08/29 06:02:12;;;;;;;8.45;3.90;;;17.20;99.90;;;;;;4993840;28;20259;-81
2021/08/29 06:04:41;;;;;;;7.75;3.78;;;17.30;99.90;;;;;;4992300;28;20231;-81
2021/08/29 06:07:07;;;;;;;7.47;3.75;;;17.30;99.90;;;;;;4992705;28;20216;-81
2021/08/29 06:09:32;;;;;;;4.85;3.40;;;17.40;99.90;;;;;;4993220;28;20204;-81
2021/08/29 06:11:58;;;;;;;4.88;3.67;;;17.40;99.90;;;;;;4991974;28;20287;-81
2021/08/29 06:14:23;;;;;;;4.97;3.05;;;17.50;99.90;;;;;;4993279;28;20205;-82
2021/08/29 06:16:49;;;;;;;4.05;3.08;;;17.40;99.90;;;;;;4993171;28;20189;-81
2021/08/29 06:19:15;;;;;;;4.57;3.00;;;17.40;99.90;;;;;;4993029;28;20177;-81
2021/08/29 06:21:40;;;;;;;7.82;3.40;;;17.30;99.90;;;;;;4992083;28;20169;-82
2021/08/29 06:24:06;;;;;;;8.18;4.13;;;17.40;99.90;;;;;;4992031;28;20216;-79
2021/08/29 06:26:31;;;;;;;10.77;3.40;;;17.50;99.90;;;;;;4992960;28;20568;-79
2021/08/29 06:28:57;;;;;;;7.07;3.70;;;17.70;99.90;;;;;;4992697;28;20280;-79
2021/08/29 06:31:23;;;;;;;5.53;2.90;;;17.80;99.90;;;;;;4993390;28;20165;-80
2021/08/29 06:33:48;;;;;;;7.13;3.10;;;18.00;99.90;;;;;;4992039;28;20209;-79
2021/08/29 06:36:15;;;;;;;6.47;3.03;;;18.10;99.90;;;;;;4994270;28;20185;-78
2021/08/29 06:38:40;;;;;;;10.35;3.58;;;18.10;99.90;;;;;;4992673;28;20564;-78
2021/08/29 06:41:06;;;;;;;7.05;3.72;;;18.30;99.90;;;;;;4993235;28;20184;-86
2021/08/29 06:43:32;;;;;;;9.15;3.47;;;18.20;99.90;;;;;;4992689;28;20207;-85
2021/08/29 06:45:58;;;;;;;4.00;3.33;;;18.40;99.90;;;;;;4992825;28;20180;-87
2021/08/29 06:48:23;;;;;;;3.90;3.35;;;18.10;99.90;;;;;;4992800;28;20197;-86
2021/08/29 06:50:49;;;;;;;9.00;3.10;;;18.10;99.90;;;;;;4992710;28;20324;-87
2021/08/29 06:53:14;;;;;;;3.42;3.08;;;18.30;99.90;;;;;;4993375;28;20263;-86
2021/08/29 06:55:40;;;;;;;10.75;3.88;;;18.40;99.90;;;;;;4992538;28;20268;-86
2021/08/29 06:58:06;;;;;;;8.98;3.55;;;18.50;99.90;;;;;;4992513;28;20192;-88
2021/08/29 07:00:31;;;;;;;7.78;3.50;;;18.30;99.90;;;;;;4992779;28;20619;-85
2021/08/29 07:02:57;;;;;;;5.05;3.35;;;18.30;99.90;;;;;;4992419;28;20192;-86
2021/08/29 07:05:25;;;;;;;9.30;3.88;;;18.20;99.90;;;;;;4993349;28;20193;-85
2021/08/29 07:07:50;;;;;;;5.93;3.40;;;18.10;99.90;;;;;;4992826;28;20200;-86
2021/08/29 07:10:16;;;;;;;6.00;3.35;;;18.40;99.90;;;;;;4992309;28;20263;-86
2021/08/29 07:12:41;;;;;;;7.68;3.45;;;18.50;99.90;;;;;;4993574;28;20201;-88
2021/08/29 07:15:07;;;;;;;3.25;2.65;;;18.60;99.90;;;;;;4992612;28;20208;-87
2021/08/29 07:17:33;;;;;;;9.48;3.65;;;18.50;99.90;;;;;;4992447;28;20255;-87
2021/08/29 07:19:59;;;;;;;5.78;3.50;;;18.20;99.90;;;;;;4992654;28;20173;-87
2021/08/29 07:22:24;;;;;;;5.10;3.05;;;18.20;99.90;;;;;;4992240;28;20235;-85
2021/08/29 07:24:50;;;;;;;8.00;3.55;;;18.20;99.90;;;;;;4992248;28;20264;-86
2021/08/29 07:27:15;;;;;;;12.80;3.42;;;18.10;99.90;;;;;;4991477;28;20238;-82
2021/08/29 07:29:41;;;;;;;13.05;3.58;;;18.10;99.90;;;;;;4992723;28;20157;-82
2021/08/29 07:32:07;;;;;;;7.40;3.60;;;18.10;99.90;;;;;;4991576;28;20193;-84
2021/08/29 07:34:34;;;;;;;7.60;3.67;;;18.10;99.90;;;;;;4990960;28;20216;-84
2021/08/29 07:37:00;;;;;;;5.32;3.15;;;18.20;99.90;;;;;;4991110;28;20224;-80
2021/08/29 07:39:26;;;;;;;5.80;3.13;;;18.40;99.90;;;;;;4991454;28;20177;-80
2021/08/29 07:41:54;;;;;;;9.48;3.53;;;18.60;99.90;;;;;;4992307;28;20169;-80
2021/08/29 07:44:20;;;;;;;5.22;3.50;;;18.90;99.90;;;;;;4992071;28;20343;-82
2021/08/29 07:46:46;;;;;;;6.18;2.90;;;18.80;99.90;;;;;;4990366;28;20705;-81
2021/08/29 07:49:12;;;;;;;7.22;3.75;;;18.50;99.90;;;;;;4992057;28;20633;-81
2021/08/29 07:51:37;;;;;;;5.10;2.83;;;18.30;99.90;;;;;;4990941;28;20606;-80
2021/08/29 07:54:03;;;;;;;4.65;2.78;;;18.40;99.90;;;;;;4992739;28;20209;-82
2021/08/29 07:56:28;;;;;;;13.98;3.97;;;18.40;99.90;;;;;;4991506;28;20165;-80
2021/08/29 07:58:54;;;;;;;7.85;2.83;;;18.50;99.90;;;;;;4992284;28;20177;-79
2021/08/29 08:01:20;;;;;;;5.75;2.55;;;18.50;99.90;;;;;;4992779;28;20169;-80
2021/08/29 08:03:45;;;;;;;8.70;3.33;;;18.60;99.90;;;;;;4992840;28;20177;-80
2021/08/29 08:06:11;;;;;;;8.68;2.67;;;18.50;99.90;;;;;;4992809;28;20211;-80
2021/08/29 08:08:37;;;;;;;9.13;3.17;;;18.60;99.90;;;;;;4992173;28;20199;-80
2021/08/29 08:11:03;;;;;;;4.45;2.78;;;18.80;99.90;;;;;;4998596;28;20606;-80
2021/08/29 08:13:30;;;;;;;14.23;2.90;;;18.70;99.90;;;;;;4995595;28;20223;-80
2021/08/29 08:15:59;;;;;;;5.18;2.97;;;18.90;99.90;;;;;;4994927;28;20205;-80
2021/08/29 08:18:26;;;;;;;5.68;2.72;;;19.10;99.90;;;;;;4996078;28;20188;-80
2021/08/29 08:20:52;;;;;;;8.73;2.70;;;19.30;99.90;;;;;;4994515;28;20244;-80
2021/08/29 08:23:17;;;;;;;4.18;2.35;;;19.60;99.90;;;;;;4995804;28;20183;-80
2021/08/29 08:25:43;;;;;;;5.93;2.88;;;19.50;99.90;;;;;;4995700;28;20170;-81
2021/08/29 08:28:09;;;;;;;5.65;2.47;;;19.30;99.90;;;;;;4995410;28;20204;-80
2021/08/29 08:30:36;;;;;;;6.90;2.35;;;19.30;99.90;;;;;;4995198;28;20222;-81
2021/08/29 08:33:01;;;;;;;8.68;2.40;;;19.30;99.90;;;;;;4995226;28;20201;-80
2021/08/29 08:35:27;;;;;;;3.15;2.10;;;18.90;99.90;;;;;;4995451;28;20641;-80
2021/08/29 08:37:53;;;;;;;5.60;2.30;;;19.10;99.90;;;;;;4994448;28;20250;-80
2021/08/29 08:40:21;;;;;;;5.20;2.58;;;19.00;99.90;;;;;;4994314;28;20169;-80
2021/08/29 08:42:48;;;;;;;5.38;2.50;;;19.00;99.90;;;;;;4993423;28;20673;-80
2021/08/29 08:45:13;;;;;;;5.70;2.28;;;19.10;99.90;;;;;;4994538;28;20153;-83
2021/08/29 08:47:42;;;;;;;5.93;1.90;;;18.90;99.90;;;;;;4993280;28;20716;-83
2021/08/29 08:50:10;;;;;;;10.80;2.47;;;18.60;99.90;;;;;;4993254;28;20177;-84
2021/08/29 08:52:36;;;;;;;5.40;2.50;;;18.60;99.90;;;;;;4993938;28;20507;-81
2021/08/29 08:55:03;;;;;;;9.23;2.33;;;18.70;99.90;;;;;;4992953;28;20170;-82
2021/08/29 08:57:29;;;;;;;7.53;2.47;;;18.90;99.90;;;;;;4994015;28;20244;-82
2021/08/29 08:59:55;;;;;;;15.27;2.53;;;19.20;99.90;;;;;;4994583;28;20184;-82
2021/08/29 09:02:22;;;;;;;13.30;2.65;;;19.50;99.90;;;;;;4994221;28;20161;-82
2021/08/29 09:04:49;;;;;;;19.70;4.13;;;19.60;99.90;;;;;;4994362;28;20176;-81
2021/08/29 09:07:15;;;;;;;9.10;2.47;;;19.80;99.90;;;;;;4993873;28;20228;-84
2021/08/29 09:09:47;;;;;;;13.43;2.47;;;19.80;99.90;;;;;;4993947;28;20176;-82
2021/08/29 09:12:13;;;;;;;166.68;11.35;;;20.20;99.90;;;;;;4993540;28;20210;-81
2021/08/29 09:14:44;;;;;;;6.30;2.22;;;20.50;99.90;;;;;;4990928;28;20232;-81
2021/08/29 09:17:37;;;;;;;9.15;2.40;;;20.60;99.90;;;;;;4992623;28;20600;-81
2021/08/29 09:20:14;;;;;;;3.20;1.88;;;20.40;99.90;;;;;;4992239;28;20705;-81
2021/08/29 09:22:41;;;;;;;21.98;3.50;;;20.20;99.90;;;;;;4991356;28;20272;-80
2021/08/29 09:25:15;;;;;;;10.18;2.20;;;20.40;99.90;;;;;;4993074;28;20657;-80
2021/08/29 09:27:53;;;;;;;7.60;2.63;;;20.20;99.90;;;;;;4993177;28;20247;-80
2021/08/29 09:30:21;;;;;;;15.48;3.28;;;20.10;99.90;;;;;;4992969;28;20172;-80
2021/08/29 09:32:47;;;;;;;7.75;2.53;;;20.00;99.90;;;;;;4992727;28;20764;-80
2021/08/29 09:35:13;;;;;;;14.02;2.80;;;20.00;99.90;;;;;;4992655;28;20243;-80
2021/08/29 09:37:39;;;;;;;4.50;2.85;;;19.80;99.90;;;;;;4991660;28;20585;-80
2021/08/29 09:40:25;;;;;;;7.10;2.90;;;19.60;99.90;;;;;;4991375;28;20235;-79
2021/08/29 09:42:52;;;;;;;5.35;2.63;;;19.60;99.90;;;;;;4984437;28;20240;-79
2021/08/29 09:45:24;;;;;;;6.38;2.63;;;19.50;99.90;;;;;;4991069;28;20179;-80
2021/08/29 09:47:52;;;;;;;8.65;2.67;;;19.60;99.90;;;;;;4991392;28;20200;-80
2021/08/29 09:50:23;;;;;;;3.45;2.28;;;19.50;99.90;;;;;;4986886;28;20205;-81
2021/08/29 09:52:58;;;;;;;5.75;3.25;;;19.50;99.90;;;;;;4987106;28;20207;-80
2021/08/29 09:55:30;;;;;;;8.50;3.28;;;19.50;99.90;;;;;;4991443;28;20233;-80
2021/08/29 09:57:56;;;;;;;4.20;2.47;;;19.70;99.90;;;;;;4988490;28;20208;-79
2021/08/29 10:00:22;;;;;;;10.98;2.88;;;19.40;99.90;;;;;;4980229;28;20535;-83
2021/08/29 10:03:27;;;;;;;6.95;2.58;;;19.40;99.90;;;;;;4990220;28;20605;-82
2021/08/29 10:06:17;;;;;;;11.52;2.63;;;19.40;99.90;;;;;;4933959;29;20190;-84
2021/08/29 10:08:45;;;;;;;5.45;2.25;;;19.50;99.90;;;;;;4941598;29;20238;-80
2021/08/29 10:11:14;;;;;;;8.35;2.35;;;19.40;99.90;;;;;;4969413;28;20232;-84
2021/08/29 10:13:40;;;;;;;11.07;2.35;;;19.20;99.90;;;;;;4992471;28;20224;-92
2021/08/29 10:16:07;;;;;;;13.68;2.58;;;19.10;99.90;;;;;;4993732;28;20248;-83
2021/08/29 10:18:38;;;;;;;3.72;2.00;;;18.80;99.90;;;;;;4993921;28;20196;-90
2021/08/29 10:21:05;;;;;;;6.75;2.75;;;18.80;99.90;;;;;;4994432;28;20180;-87
2021/08/29 10:23:31;;;;;;;6.90;2.20;;;18.70;99.90;;;;;;4993414;28;20179;-81
2021/08/29 10:25:58;;;;;;;15.52;2.15;;;18.60;99.90;;;;;;4990826;28;20178;-81
2021/08/29 10:28:27;;;;;;;6.32;2.47;;;18.60;99.90;;;;;;4987052;28;20225;-81
2021/08/29 10:30:55;;;;;;;5.78;2.15;;;18.90;99.90;;;;;;4991368;28;20265;-82
2021/08/29 10:33:25;;;;;;;10.02;2.65;;;18.90;99.90;;;;;;4990733;28;20189;-82
2021/08/29 10:35:51;;;;;;;8.68;3.05;;;19.10;99.90;;;;;;4991788;28;20169;-81
2021/08/29 10:38:21;;;;;;;7.22;2.25;;;19.20;99.90;;;;;;4991284;28;20561;-81
2021/08/29 10:40:49;;;;;;;4.55;2.22;;;18.90;99.90;;;;;;4993206;28;20200;-82
2021/08/29 10:43:15;;;;;;;5.07;2.17;;;18.80;99.90;;;;;;4993892;28;20176;-85
2021/08/29 10:45:41;;;;;;;10.57;2.35;;;18.80;99.90;;;;;;4991160;28;20212;-83
2021/08/29 10:48:11;;;;;;;3.28;1.48;;;19.00;99.90;;;;;;4990659;28;20193;-84
2021/08/29 10:50:38;;;;;;;8.90;1.92;;;18.90;99.90;;;;;;4991209;28;20173;-84
2021/08/29 10:53:26;;;;;;;3.42;1.95;;;19.10;99.90;;;;;;5010234;23;20307;-83
2021/08/29 10:55:52;;;;;;;3.63;1.77;;;19.00;99.90;;;;;;4993841;28;20186;-85
2021/08/29 10:58:20;;;;;;;11.15;2.20;;;19.10;99.90;;;;;;4994359;28;20197;-83
2021/08/29 11:00:46;;;;;;;7.18;2.25;;;19.30;99.90;;;;;;4994120;28;20174;-85
2021/08/29 11:03:28;;;;;;;2.70;1.52;;;19.30;99.90;;;;;;4991948;28;20169;-84
2021/08/29 11:05:54;;;;;;;4.97;1.70;;;19.20;99.90;;;;;;4991804;28;20173;-84
2021/08/29 11:08:26;;;;;;;6.82;1.90;;;19.20;99.90;;;;;;4991491;28;20279;-83
2021/08/29 11:10:53;;;;;;;1.98;1.60;;;19.60;99.90;;;;;;4992046;28;20280;-83
2021/08/29 11:13:38;;;;;;;5.68;1.90;;;19.80;99.90;;;;;;4991946;28;20251;-83
2021/08/29 11:16:09;;;;;;;9.18;1.98;;;19.80;99.90;;;;;;4993302;28;20604;-83
2021/08/29 11:19:00;;;;;;;5.13;2.33;;;20.10;99.90;;;;;;4991962;28;20267;-84
2021/08/29 11:21:26;;;;;;;5.93;1.98;;;20.10;99.90;;;;;;4993375;28;20187;-83
2021/08/29 11:23:52;;;;;;;6.57;2.05;;;20.20;99.90;;;;;;4991593;28;20172;-84
2021/08/29 11:26:35;;;;;;;11.60;2.08;;;20.40;99.90;;;;;;4991684;28;20169;-84
2021/08/29 11:29:02;;;;;;;9.02;1.92;;;20.30;99.90;;;;;;4992038;28;20173;-83
2021/08/29 11:31:50;;;;;;;5.78;1.92;;;20.20;99.90;;;;;;4993665;28;20201;-85
2021/08/29 11:34:17;;;;;;;9.20;1.65;;;20.10;99.90;;;;;;4992909;28;20221;-86
2021/08/29 11:36:44;;;;;;;5.47;2.13;;;19.90;99.90;;;;;;4996317;28;20206;-87
2021/08/29 11:39:31;;;;;;;6.47;1.48;;;19.70;99.90;;;;;;4994543;28;20165;-87
2021/08/29 11:42:17;;;;;;;6.00;1.70;;;19.80;99.90;;;;;;4993463;28;20637;-86
2021/08/29 11:44:44;;;;;;;3.88;1.58;;;19.50;99.90;;;;;;4995522;28;20177;-85
2021/08/29 11:47:10;;;;;;;7.85;2.17;;;19.40;99.90;;;;;;4996155;28;20185;-85
2021/08/29 11:49:38;;;;;;;5.32;1.70;;;19.40;99.90;;;;;;4997106;28;20621;-83
2021/08/29 11:52:04;;;;;;;13.15;2.15;;;19.50;99.90;;;;;;5001109;28;20681;-84
2021/08/29 11:54:30;;;;;;;5.07;1.83;;;19.50;99.90;;;;;;5009946;28;20264;-83
2021/08/29 11:56:55;;;;;;;2.72;1.33;;;19.50;99.90;;;;;;5019436;28;20181;-85
2021/08/29 11:59:32;;;;;;;6.43;1.52;;;19.40;99.90;;;;;;5019400;28;20187;-87
2021/08/29 12:01:59;;;;;;;3.70;2.15;;;19.20;99.90;;;;;;5017593;28;20177;-86
2021/08/29 12:04:26;;;;;;;3.83;1.90;;;19.20;99.90;;;;;;4998772;28;20169;-85
2021/08/29 12:07:15;;;;;;;9.73;2.70;;;19.40;99.90;;;;;;4996501;28;20220;-84
2021/08/29 12:09:42;;;;;;;8.15;2.13;;;19.30;99.90;;;;;;4998789;28;20172;-86
2021/08/29 12:12:16;;;;;;;4.35;1.67;;;19.30;99.90;;;;;;4996023;28;20196;-85
2021/08/29 12:14:43;;;;;;;4.25;1.45;;;19.30;99.90;;;;;;4998275;28;20287;-88
2021/08/29 12:17:12;;;;;;;3.80;2.05;;;19.50;99.90;;;;;;4996434;28;20248;-84
2021/08/29 12:19:40;;;;;;;3.65;1.60;;;19.40;99.90;;;;;;4996262;28;20174;-84
2021/08/29 12:22:08;;;;;;;9.45;1.77;;;18.90;99.90;;;;;;4996194;28;20169;-85
2021/08/29 12:24:39;;;;;;;6.80;1.80;;;18.60;99.90;;;;;;4996408;28;20196;-85
2021/08/29 12:27:10;;;;;;;2.88;1.65;;;18.50;99.90;;;;;;4995880;28;20193;-85
2021/08/29 12:30:01;;;;;;;7.32;2.20;;;18.60;99.90;;;;;;4996086;28;20181;-86
2021/08/29 12:32:29;;;;;;;7.20;2.15;;;18.30;99.90;;;;;;4996440;28;20227;-87
2021/08/29 12:34:56;;;;;;;11.95;2.20;;;18.20;99.90;;;;;;4995003;28;20209;-85
2021/08/29 12:37:24;;;;;;;8.23;2.95;;;18.00;99.90;;;;;;4995667;28;20245;-85
2021/08/29 12:40:00;;;;;;;2.08;1.52;;;17.80;99.90;;;;;;4996359;28;20169;-86
2021/08/29 12:42:27;;;;;;;5.28;1.60;;;17.70;99.90;;;;;;4995671;28;20169;-85
2021/08/29 12:44:57;;;;;;;3.33;1.67;;;17.60;99.90;;;;;;4995460;28;20173;-87
2021/08/29 12:47:23;;;;;;;5.88;2.10;;;17.90;99.90;;;;;;4996458;28;20299;-87
2021/08/29 12:49:50;;;;;;;3.85;1.85;;;17.90;99.90;;;;;;4994735;28;20200;-83